createdAt,value
2022-09-05T00:00:04.992Z,0.4
2022-09-05T00:00:25.047Z,0.4
2022-09-05T00:00:45.077Z,0.4
2022-09-05T00:01:05.171Z,0.6
2022-09-05T00:01:27.427Z,0.3
2022-09-05T00:01:45.313Z,0.3
2022-09-05T00:02:05.393Z,0.3
2022-09-05T00:02:25.564Z,0.5
2022-09-05T00:02:49.528Z,0.6
2022-09-05T00:03:05.677Z,0.5
2022-09-05T00:03:26.139Z,0.5
2022-09-05T00:03:45.843Z,0.3
2022-09-05T00:04:24.748Z,0.2
2022-09-05T00:04:26.014Z,0.1
2022-09-05T00:04:45.853Z,0
2022-09-05T00:05:05.918Z,0
2022-09-05T00:05:26.014Z,0
2022-09-05T00:06:01.836Z,0
2022-09-05T00:06:06.110Z,0.1
2022-09-05T00:06:26.185Z,0.1
2022-09-05T00:06:46.261Z,0.5
2022-09-05T00:07:06.309Z,0.3
2022-09-05T00:07:36.061Z,0
2022-09-05T00:07:59.462Z,0.2
2022-09-05T00:08:06.487Z,0.2
2022-09-05T00:08:26.556Z,0.3
2022-09-05T00:08:46.623Z,0.3
2022-09-05T00:09:06.682Z,0.4
2022-09-05T00:09:27.771Z,0.2
2022-09-05T00:09:46.817Z,0.2
2022-09-05T00:10:06.878Z,0.1
2022-09-05T00:10:26.939Z,0.4
2022-09-05T00:11:39.386Z,0.3
2022-09-05T00:11:41.754Z,0.3
2022-09-05T00:11:43.137Z,0.3
2022-09-05T00:11:47.204Z,0.3
2022-09-05T00:12:07.285Z,0.3
2022-09-05T00:12:27.335Z,0.4
2022-09-05T00:12:47.387Z,0.4
2022-09-05T00:13:08.186Z,0.1
2022-09-05T00:13:27.522Z,0
2022-09-05T00:13:47.578Z,0.1
2022-09-05T00:14:07.630Z,0.1
2022-09-05T00:14:55.891Z,0.2
2022-09-05T00:15:14.401Z,0.4
2022-09-05T00:15:16.188Z,0.4
2022-09-05T00:15:27.908Z,0.3
2022-09-05T00:15:48.010Z,0.2
2022-09-05T00:16:08.051Z,0.4
2022-09-05T00:16:30.461Z,0.4
2022-09-05T00:16:48.127Z,0.5
2022-09-05T00:17:08.196Z,0.4
2022-09-05T00:17:43.767Z,0.4
2022-09-05T00:19:09.354Z,0.3
2022-09-05T00:21:48.213Z,0.3
2022-09-05T00:22:27.416Z,0.3
2022-09-05T00:23:12.105Z,0.3
2022-09-05T00:24:17.136Z,0.4
2022-09-05T00:24:17.472Z,0.4
2022-09-05T00:24:21.789Z,0.3
2022-09-05T00:24:22.303Z,0.2
2022-09-05T00:24:22.348Z,0.3
2022-09-05T00:24:22.656Z,0.3
2022-09-05T00:24:25.379Z,0.3
2022-09-05T00:24:26.252Z,0.3
2022-09-05T00:24:29.590Z,0.3
2022-09-05T00:24:30.243Z,0.3
2022-09-05T00:24:30.498Z,0.2
2022-09-05T00:24:31.895Z,0.3
2022-09-05T00:24:33.159Z,0.3
2022-09-05T00:24:34.455Z,0.3
2022-09-05T00:24:37.052Z,0.3
2022-09-05T00:24:37.157Z,0.3
2022-09-05T00:24:51.391Z,0.2
2022-09-05T00:25:07.226Z,0.3
2022-09-05T00:25:31.558Z,0.4
2022-09-05T00:25:49.854Z,0.7
2022-09-05T00:26:09.896Z,0.7
2022-09-05T00:26:29.987Z,0.7
2022-09-05T00:26:50.857Z,0.4
2022-09-05T00:27:10.097Z,0.4
2022-09-05T00:27:30.151Z,0.4
2022-09-05T00:27:50.231Z,0.7
2022-09-05T00:28:26.100Z,0.4
2022-09-05T00:28:30.361Z,0.4
2022-09-05T00:28:50.435Z,0.4
2022-09-05T00:29:10.506Z,0.4
2022-09-05T00:29:42.024Z,0.5
2022-09-05T00:31:05.622Z,0.5
2022-09-05T00:31:05.702Z,0.4
2022-09-05T00:31:06.935Z,0.3
2022-09-05T00:31:08.691Z,0.2
2022-09-05T00:31:53.910Z,0.4
2022-09-05T00:31:54.344Z,0.4
2022-09-05T00:31:56.505Z,0.3
2022-09-05T00:32:11.217Z,0.3
2022-09-05T00:32:31.233Z,0.3
2022-09-05T00:32:51.286Z,0.5
2022-09-05T00:33:16.992Z,0.5
2022-09-05T00:33:31.606Z,0.5
2022-09-05T00:33:51.361Z,0.5
2022-09-05T00:34:11.420Z,0.5
2022-09-05T00:34:47.141Z,0.8
2022-09-05T00:34:51.580Z,0.8
2022-09-05T00:35:11.613Z,0.8
2022-09-05T00:35:31.678Z,0.5
2022-09-05T00:35:51.754Z,0.4
2022-09-05T00:36:11.788Z,0.5
2022-09-05T00:36:31.870Z,0.6
2022-09-05T00:36:51.936Z,0.4
2022-09-05T00:37:12.461Z,0.4
2022-09-05T00:37:32.095Z,0.2
2022-09-05T00:37:52.115Z,0.4
2022-09-05T00:38:12.177Z,0.6
2022-09-05T00:38:36.868Z,0.5
2022-09-05T00:38:52.311Z,0.5
2022-09-05T00:39:12.371Z,0.4
2022-09-05T00:39:32.535Z,0.4
2022-09-05T00:40:02.496Z,0.2
2022-09-05T00:40:18.155Z,0.6
2022-09-05T00:40:32.685Z,0.3
2022-09-05T00:40:52.702Z,0.2
2022-09-05T00:41:12.774Z,0.3
2022-09-05T00:41:34.203Z,0.2
2022-09-05T00:41:52.893Z,0.2
2022-09-05T00:42:12.940Z,0.2
2022-09-05T00:42:33.019Z,0.3
2022-09-05T00:42:53.087Z,0.1
2022-09-05T00:43:13.179Z,0.3
2022-09-05T00:43:33.199Z,0.2
2022-09-05T00:43:53.272Z,0.1
2022-09-05T00:44:13.335Z,0.3
2022-09-05T00:44:33.378Z,0.5
2022-09-05T00:44:53.454Z,0.2
2022-09-05T00:45:19.405Z,0.2
2022-09-05T00:45:33.595Z,0.2
2022-09-05T00:45:53.660Z,0.1
2022-09-05T00:46:13.794Z,0.2
2022-09-05T00:46:33.884Z,0.1
2022-09-05T00:46:53.907Z,0.1
2022-09-05T00:47:13.889Z,0.1
2022-09-05T00:47:33.959Z,0
2022-09-05T00:47:54.030Z,0.3
2022-09-05T00:48:14.089Z,0.2
2022-09-05T00:48:34.157Z,0.2
2022-09-05T00:48:54.246Z,0.3
2022-09-05T00:49:14.276Z,0.1
2022-09-05T00:49:34.357Z,0
2022-09-05T00:49:54.454Z,0.3
2022-09-05T00:50:14.454Z,0.1
2022-09-05T00:50:34.543Z,0
2022-09-05T00:50:54.585Z,0
2022-09-05T00:51:14.658Z,0
2022-09-05T00:51:35.132Z,0.2
2022-09-05T00:51:54.787Z,0
2022-09-05T00:52:14.843Z,0
2022-09-05T00:52:34.917Z,0
2022-09-05T00:53:07.069Z,0
2022-09-05T00:53:15.027Z,0
2022-09-05T00:53:35.083Z,0
2022-09-05T00:53:55.172Z,0
2022-09-05T00:54:15.805Z,0
2022-09-05T00:54:40.920Z,0
2022-09-05T00:54:55.350Z,0
2022-09-05T00:55:15.415Z,0
2022-09-05T00:55:35.484Z,0
2022-09-05T00:55:58.793Z,0
2022-09-05T00:56:15.614Z,0
2022-09-05T00:56:35.680Z,0
2022-09-05T00:56:55.750Z,0
2022-09-05T00:57:18.101Z,0
2022-09-05T00:57:35.930Z,0
2022-09-05T00:57:55.940Z,0
2022-09-05T00:58:15.995Z,0
2022-09-05T00:58:36.071Z,0
2022-09-05T00:58:56.119Z,0
2022-09-05T00:59:16.227Z,0
2022-09-05T00:59:36.247Z,0
2022-09-05T00:59:59.072Z,0
2022-09-05T01:00:17.816Z,0
2022-09-05T01:00:36.430Z,0
2022-09-05T01:00:56.519Z,0
2022-09-05T01:01:16.560Z,0
2022-09-05T01:01:36.718Z,0
2022-09-05T01:01:56.840Z,0
2022-09-05T01:02:16.888Z,0
2022-09-05T01:02:40.239Z,0
2022-09-05T01:02:57.044Z,0
2022-09-05T01:03:17.053Z,0
2022-09-05T01:03:36.995Z,0
2022-09-05T01:03:57.072Z,0
2022-09-05T01:04:17.141Z,0
2022-09-05T01:04:37.203Z,0
2022-09-05T01:04:57.317Z,0
2022-09-05T01:05:17.320Z,0
2022-09-05T01:05:37.370Z,0
2022-09-05T01:05:57.440Z,0
2022-09-05T01:06:17.520Z,0
2022-09-05T01:06:37.573Z,0
2022-09-05T01:06:57.653Z,0
2022-09-05T01:07:17.719Z,0
2022-09-05T01:07:38.024Z,0
2022-09-05T01:07:57.827Z,0
2022-09-05T01:08:17.878Z,0
2022-09-05T01:08:37.964Z,0
2022-09-05T01:08:59.943Z,0
2022-09-05T01:09:18.087Z,0
2022-09-05T01:09:38.129Z,0
2022-09-05T01:09:58.153Z,0
2022-09-05T01:10:18.150Z,0
2022-09-05T01:10:38.173Z,0
2022-09-05T01:10:58.245Z,0
2022-09-05T01:11:18.224Z,0
2022-09-05T01:11:38.268Z,0
2022-09-05T01:11:58.293Z,0
2022-09-05T01:12:18.327Z,0
2022-09-05T01:12:38.346Z,0
2022-09-05T01:12:58.385Z,0
2022-09-05T01:13:18.394Z,0
2022-09-05T01:13:38.407Z,0
2022-09-05T01:13:58.433Z,0
2022-09-05T01:14:18.466Z,0
2022-09-05T01:14:38.487Z,0
2022-09-05T01:14:58.505Z,0
2022-09-05T01:15:18.552Z,0
2022-09-05T01:15:38.608Z,0
2022-09-05T01:15:58.718Z,0
2022-09-05T01:16:18.630Z,0
2022-09-05T01:16:38.634Z,0
2022-09-05T01:16:58.635Z,0
2022-09-05T01:17:18.694Z,0
2022-09-05T01:17:38.709Z,0
2022-09-05T01:18:00.370Z,0
2022-09-05T01:18:18.756Z,0
2022-09-05T01:18:38.777Z,0
2022-09-05T01:18:58.775Z,0
2022-09-05T01:19:18.830Z,0
2022-09-05T01:19:38.817Z,0
2022-09-05T01:20:04.842Z,0
2022-09-05T01:20:20.630Z,0
2022-09-05T01:20:38.960Z,0
2022-09-05T01:20:58.973Z,0
2022-09-05T01:21:19.003Z,0
2022-09-05T01:21:39.020Z,0
2022-09-05T01:21:59.074Z,0
2022-09-05T01:22:19.135Z,0
2022-09-05T01:22:39.178Z,0
2022-09-05T01:22:59.205Z,0
2022-09-05T01:23:19.312Z,0
2022-09-05T01:23:39.231Z,0
2022-09-05T01:23:59.269Z,0
2022-09-05T01:24:27.961Z,0
2022-09-05T01:24:39.294Z,0
2022-09-05T01:24:59.322Z,0
2022-09-05T01:25:19.340Z,0
2022-09-05T01:25:39.366Z,0
2022-09-05T01:25:59.395Z,0.2
2022-09-05T01:26:19.366Z,0.1
2022-09-05T01:26:39.431Z,0
2022-09-05T01:26:59.441Z,0
2022-09-05T01:27:19.512Z,0
2022-09-05T01:28:51.257Z,0
2022-09-05T01:29:12.964Z,0
2022-09-05T01:29:15.589Z,0
2022-09-05T01:29:16.478Z,0
2022-09-05T01:29:16.984Z,0
2022-09-05T01:29:20.125Z,0
2022-09-05T01:29:39.948Z,0
2022-09-05T01:30:00.010Z,0
2022-09-05T01:30:20.092Z,0
2022-09-05T01:30:40.140Z,0
2022-09-05T01:31:00.312Z,0
2022-09-05T01:31:20.346Z,0
2022-09-05T01:31:40.336Z,0
2022-09-05T01:32:00.409Z,0
2022-09-05T01:32:20.474Z,0
2022-09-05T01:32:40.534Z,0
2022-09-05T01:33:05.942Z,0
2022-09-05T01:33:20.788Z,0
2022-09-05T01:33:40.737Z,0
2022-09-05T01:34:00.802Z,0
2022-09-05T01:34:31.192Z,0
2022-09-05T01:34:40.919Z,0
2022-09-05T01:35:00.981Z,0
2022-09-05T01:35:21.038Z,0
2022-09-05T01:35:41.106Z,0
2022-09-05T01:36:04.310Z,0
2022-09-05T01:36:21.223Z,0
2022-09-05T01:36:41.285Z,0
2022-09-05T01:37:01.343Z,0
2022-09-05T01:37:32.800Z,0
2022-09-05T01:37:41.507Z,0
2022-09-05T01:38:01.565Z,0
2022-09-05T01:38:21.635Z,0
2022-09-05T01:38:44.586Z,0
2022-09-05T01:40:12.243Z,0
2022-09-05T01:40:12.327Z,0
2022-09-05T01:40:14.438Z,0
2022-09-05T01:40:15.301Z,0
2022-09-05T01:40:22.091Z,0
2022-09-05T01:40:43.503Z,0
2022-09-05T01:41:17.958Z,0
2022-09-05T01:41:22.267Z,0
2022-09-05T01:41:42.286Z,0
2022-09-05T01:42:02.299Z,0
2022-09-05T01:42:22.386Z,0
2022-09-05T01:42:42.444Z,0
2022-09-05T01:43:02.529Z,0
2022-09-05T01:43:22.675Z,0
2022-09-05T01:43:42.641Z,0
2022-09-05T01:44:02.733Z,0
2022-09-05T01:44:22.745Z,0
2022-09-05T01:44:42.834Z,0
2022-09-05T01:45:02.877Z,0
2022-09-05T01:45:25.071Z,0
2022-09-05T01:45:43.046Z,0
2022-09-05T01:46:03.131Z,0
2022-09-05T01:46:23.173Z,0
2022-09-05T01:46:43.271Z,0
2022-09-05T01:47:03.241Z,0
2022-09-05T01:47:29.598Z,0
2022-09-05T01:47:43.407Z,0
2022-09-05T01:48:03.457Z,0
2022-09-05T01:48:23.645Z,0
2022-09-05T01:48:47.578Z,0
2022-09-05T01:49:04.136Z,0
2022-09-05T01:49:23.715Z,0
2022-09-05T01:49:43.777Z,0
2022-09-05T01:50:03.848Z,0
2022-09-05T01:50:23.894Z,0
2022-09-05T01:50:43.981Z,0
2022-09-05T01:51:05.347Z,0
2022-09-05T01:51:29.022Z,0
2022-09-05T01:51:44.162Z,0
2022-09-05T01:52:04.234Z,0
2022-09-05T01:52:24.300Z,0
2022-09-05T01:52:57.427Z,0
2022-09-05T01:53:05.465Z,0
2022-09-05T01:53:24.507Z,0
2022-09-05T01:53:44.558Z,0
2022-09-05T01:54:04.595Z,0
2022-09-05T01:54:27.005Z,0
2022-09-05T01:54:44.731Z,0
2022-09-05T01:55:04.775Z,0
2022-09-05T01:55:24.855Z,0
2022-09-05T01:56:04.755Z,0
2022-09-05T01:56:08.454Z,0
2022-09-05T01:56:25.126Z,0
2022-09-05T01:56:45.129Z,0
2022-09-05T01:57:05.157Z,0
2022-09-05T01:57:25.246Z,0
2022-09-05T01:57:45.319Z,0
2022-09-05T01:58:05.360Z,0
2022-09-05T01:58:25.427Z,0
2022-09-05T01:58:45.515Z,0
2022-09-05T01:59:05.555Z,0
2022-09-05T01:59:25.649Z,0
2022-09-05T01:59:46.028Z,0
2022-09-05T02:00:05.752Z,0
2022-09-05T02:00:25.790Z,0
2022-09-05T02:00:45.889Z,0
2022-09-05T02:01:25.539Z,0
2022-09-05T02:01:32.325Z,0
2022-09-05T02:01:46.077Z,0
2022-09-05T02:02:06.174Z,0
2022-09-05T02:02:26.366Z,0
2022-09-05T02:02:46.267Z,0
2022-09-05T02:03:06.331Z,0
2022-09-05T02:03:26.519Z,0
2022-09-05T02:03:46.429Z,0
2022-09-05T02:04:07.271Z,0
2022-09-05T02:04:26.565Z,0
2022-09-05T02:04:46.636Z,0
2022-09-05T02:05:06.699Z,0
2022-09-05T02:05:47.660Z,0
2022-09-05T02:05:48.194Z,0
2022-09-05T02:06:06.878Z,0
2022-09-05T02:06:26.946Z,0
2022-09-05T02:06:47.035Z,0
2022-09-05T02:07:22.515Z,0
2022-09-05T02:07:31.334Z,0
2022-09-05T02:07:47.194Z,0
2022-09-05T02:08:07.275Z,0
2022-09-05T02:08:27.312Z,0
2022-09-05T02:08:47.389Z,0
2022-09-05T02:09:07.454Z,0
2022-09-05T02:09:27.558Z,0
2022-09-05T02:09:47.576Z,0
2022-09-05T02:10:07.879Z,0
2022-09-05T02:10:27.707Z,0
2022-09-05T02:10:47.776Z,0
2022-09-05T02:11:07.831Z,0
2022-09-05T02:11:35.655Z,0
2022-09-05T02:11:47.967Z,0
2022-09-05T02:12:08.029Z,0
2022-09-05T02:12:28.106Z,0
2022-09-05T02:13:02.589Z,0
2022-09-05T02:13:08.220Z,0
2022-09-05T02:13:28.273Z,0
2022-09-05T02:13:48.343Z,0
2022-09-05T02:14:08.403Z,0
2022-09-05T02:14:33.655Z,0
2022-09-05T02:14:48.522Z,0
2022-09-05T02:15:08.593Z,0
2022-09-05T02:15:28.691Z,0
2022-09-05T02:15:59.164Z,0
2022-09-05T02:16:08.817Z,0
2022-09-05T02:16:28.865Z,0
2022-09-05T02:16:48.908Z,0
2022-09-05T02:17:08.995Z,0
2022-09-05T02:17:50.537Z,0
2022-09-05T02:17:51.168Z,0
2022-09-05T02:18:09.155Z,0
2022-09-05T02:18:29.248Z,0
2022-09-05T02:18:49.302Z,0
2022-09-05T02:19:09.344Z,0
2022-09-05T02:19:29.453Z,0
2022-09-05T02:19:49.520Z,0
2022-09-05T02:20:09.558Z,0
2022-09-05T02:20:29.614Z,0
2022-09-05T02:20:49.705Z,0
2022-09-05T02:21:09.742Z,0
2022-09-05T02:21:29.793Z,0
2022-09-05T02:21:56.114Z,0
2022-09-05T02:22:09.959Z,0
2022-09-05T02:22:30.017Z,0
2022-09-05T02:22:50.058Z,0
2022-09-05T02:23:24.702Z,0
2022-09-05T02:23:41.638Z,0
2022-09-05T02:23:50.260Z,0
2022-09-05T02:24:10.322Z,0
2022-09-05T02:24:30.378Z,0
2022-09-05T02:24:50.444Z,0
2022-09-05T02:25:23.244Z,0
2022-09-05T02:26:01.612Z,0
2022-09-05T02:26:02.426Z,0
2022-09-05T02:26:10.698Z,0
2022-09-05T02:26:30.755Z,0
2022-09-05T02:26:50.824Z,0
2022-09-05T02:27:10.944Z,0
2022-09-05T02:28:04.615Z,0
2022-09-05T02:28:05.832Z,0
2022-09-05T02:28:11.088Z,0
2022-09-05T02:28:31.140Z,0
2022-09-05T02:28:51.197Z,0
2022-09-05T02:29:11.283Z,0
2022-09-05T02:29:31.329Z,0
2022-09-05T02:29:51.395Z,0
2022-09-05T02:30:11.492Z,0
2022-09-05T02:30:31.529Z,0
2022-09-05T02:31:19.820Z,0
2022-09-05T02:31:20.525Z,0
2022-09-05T02:31:31.701Z,0
2022-09-05T02:31:51.850Z,0
2022-09-05T02:32:11.836Z,0
2022-09-05T02:32:31.901Z,0
2022-09-05T02:32:51.923Z,0
2022-09-05T02:33:11.986Z,0
2022-09-05T02:33:32.016Z,0
2022-09-05T02:33:52.047Z,0
2022-09-05T02:34:12.085Z,0
2022-09-05T02:34:32.097Z,0
2022-09-05T02:34:52.116Z,0
2022-09-05T02:35:13.749Z,0
2022-09-05T02:35:32.194Z,0
2022-09-05T02:35:52.203Z,0
2022-09-05T02:36:12.213Z,0
2022-09-05T02:36:32.258Z,0
2022-09-05T02:36:52.290Z,0
2022-09-05T02:37:12.290Z,0
2022-09-05T02:38:18.334Z,0
2022-09-05T02:39:09.206Z,0
2022-09-05T02:40:06.175Z,0
2022-09-05T02:40:12.567Z,0
2022-09-05T02:45:00.398Z,0
2022-09-05T02:45:00.955Z,0
2022-09-05T02:45:01.104Z,0
2022-09-05T02:45:02.341Z,0
2022-09-05T02:45:03.414Z,0
2022-09-05T02:45:03.728Z,0
2022-09-05T02:45:06.294Z,0
2022-09-05T02:45:10.844Z,0
2022-09-05T02:45:10.845Z,0
2022-09-05T02:45:11.900Z,0
2022-09-05T02:45:12.795Z,0
2022-09-05T02:45:14.649Z,0
2022-09-05T02:45:16.412Z,0
2022-09-05T02:45:16.896Z,0
2022-09-05T02:45:17.650Z,0
2022-09-05T02:45:19.111Z,0
2022-09-05T02:45:19.716Z,0
2022-09-05T02:45:20.005Z,0
2022-09-05T02:45:21.519Z,0
2022-09-05T02:45:28.879Z,0
2022-09-05T02:45:33.351Z,0
2022-09-05T02:45:53.131Z,0
2022-09-05T02:46:13.146Z,0
2022-09-05T02:46:33.146Z,0
2022-09-05T02:46:53.245Z,0
2022-09-05T02:47:13.145Z,0
2022-09-05T02:47:33.117Z,0
2022-09-05T02:47:53.152Z,0
2022-09-05T02:48:15.611Z,0
2022-09-05T02:48:33.205Z,0
2022-09-05T02:48:53.224Z,0
2022-09-05T02:50:09.928Z,0
2022-09-05T02:51:01.220Z,0
2022-09-05T02:51:48.799Z,0
2022-09-05T02:52:43.886Z,0
2022-09-05T02:54:09.262Z,0
2022-09-05T02:55:08.447Z,0
2022-09-05T02:55:57.465Z,0
2022-09-05T02:57:18.946Z,0
2022-09-05T02:57:24.866Z,0
2022-09-05T02:57:25.662Z,0
2022-09-05T02:57:26.093Z,0
2022-09-05T02:57:28.165Z,0
2022-09-05T02:57:29.378Z,0
2022-09-05T02:57:30.502Z,0
2022-09-05T02:57:33.865Z,0
2022-09-05T02:57:34.205Z,0
2022-09-05T02:57:34.885Z,0
2022-09-05T02:57:35.592Z,0
2022-09-05T02:57:35.595Z,0
2022-09-05T02:57:35.598Z,0
2022-09-05T02:57:35.917Z,0
2022-09-05T02:57:36.861Z,0
2022-09-05T02:57:37.963Z,0
2022-09-05T02:57:39.932Z,0
2022-09-05T02:57:40.242Z,0
2022-09-05T02:58:06.016Z,0
2022-09-05T02:58:08.044Z,0
2022-09-05T02:58:15.218Z,0
2022-09-05T02:59:05.745Z,0
2022-09-05T02:59:09.580Z,0
2022-09-05T02:59:14.995Z,0
2022-09-05T02:59:36.674Z,0
2022-09-05T02:59:55.121Z,0
2022-09-05T03:00:15.191Z,0
2022-09-05T03:00:35.256Z,0
2022-09-05T03:00:55.389Z,0
2022-09-05T03:01:15.435Z,0
2022-09-05T03:01:35.569Z,0
2022-09-05T03:01:55.511Z,0
2022-09-05T03:02:24.996Z,0
2022-09-05T03:02:35.662Z,0
2022-09-05T03:02:55.731Z,0
2022-09-05T03:03:15.871Z,0
2022-09-05T03:03:35.829Z,0
2022-09-05T03:03:55.912Z,0
2022-09-05T03:04:15.935Z,0
2022-09-05T03:04:36.009Z,0
2022-09-05T03:04:59.366Z,0
2022-09-05T03:05:16.144Z,0
2022-09-05T03:05:36.218Z,0
2022-09-05T03:05:56.285Z,0
2022-09-05T03:06:16.324Z,0
2022-09-05T03:06:36.394Z,0
2022-09-05T03:06:56.464Z,0
2022-09-05T03:07:16.510Z,0
2022-09-05T03:07:36.592Z,0
2022-09-05T03:07:56.666Z,0
2022-09-05T03:08:16.716Z,0
2022-09-05T03:08:36.783Z,0
2022-09-05T03:08:57.008Z,0
2022-09-05T03:09:17.687Z,0
2022-09-05T03:09:36.966Z,0
2022-09-05T03:09:57.012Z,0
2022-09-05T03:10:17.091Z,0
2022-09-05T03:10:53.611Z,0
2022-09-05T03:10:57.233Z,0
2022-09-05T03:11:17.280Z,0
2022-09-05T03:11:37.335Z,0
2022-09-05T03:11:57.408Z,0
2022-09-05T03:12:28.406Z,0
2022-09-05T03:12:37.570Z,0
2022-09-05T03:12:57.604Z,0
2022-09-05T03:13:17.659Z,0
2022-09-05T03:13:37.729Z,0
2022-09-05T03:13:57.780Z,0
2022-09-05T03:14:17.843Z,0
2022-09-05T03:14:37.901Z,0
2022-09-05T03:14:57.976Z,0
2022-09-05T03:15:22.913Z,0
2022-09-05T03:15:38.078Z,0
2022-09-05T03:16:01.311Z,0
2022-09-05T03:16:18.311Z,0
2022-09-05T03:16:47.107Z,0
2022-09-05T03:16:58.415Z,0
2022-09-05T03:17:18.443Z,0
2022-09-05T03:17:38.500Z,0
2022-09-05T03:18:17.983Z,0
2022-09-05T03:18:20.366Z,0
2022-09-05T03:18:38.701Z,0
2022-09-05T03:18:58.749Z,0
2022-09-05T03:19:18.800Z,0
2022-09-05T03:19:46.763Z,0
2022-09-05T03:19:58.932Z,0
2022-09-05T03:20:18.982Z,0
2022-09-05T03:20:39.066Z,0
2022-09-05T03:21:09.007Z,0
2022-09-05T03:21:19.170Z,0
2022-09-05T03:21:39.248Z,0
2022-09-05T03:21:59.318Z,0
2022-09-05T03:22:19.388Z,0
2022-09-05T03:22:39.439Z,0
2022-09-05T03:22:59.511Z,0
2022-09-05T03:23:19.576Z,0
2022-09-05T03:23:39.635Z,0
2022-09-05T03:23:59.722Z,0
2022-09-05T03:24:19.761Z,0
2022-09-05T03:24:39.811Z,0
2022-09-05T03:24:59.883Z,0
2022-09-05T03:25:19.948Z,0
2022-09-05T03:25:40.037Z,0
2022-09-05T03:26:00.103Z,0
2022-09-05T03:26:20.162Z,0
2022-09-05T03:26:40.225Z,0
2022-09-05T03:27:00.286Z,0
2022-09-05T03:27:20.345Z,0
2022-09-05T03:27:40.425Z,0
2022-09-05T03:28:00.482Z,0
2022-09-05T03:28:20.709Z,0
2022-09-05T03:28:40.588Z,0
2022-09-05T03:29:00.664Z,0
2022-09-05T03:29:20.750Z,0
2022-09-05T03:29:40.767Z,0
2022-09-05T03:30:00.875Z,0
2022-09-05T03:30:20.904Z,0
2022-09-05T03:30:41.037Z,0
2022-09-05T03:31:01.079Z,0
2022-09-05T03:31:22.711Z,0
2022-09-05T03:31:41.189Z,0
2022-09-05T03:32:01.236Z,0
2022-09-05T03:32:21.283Z,0
2022-09-05T03:32:42.293Z,0
2022-09-05T03:33:01.413Z,0
2022-09-05T03:33:21.448Z,0
2022-09-05T03:33:41.542Z,0
2022-09-05T03:34:01.588Z,0
2022-09-05T03:34:21.676Z,0
2022-09-05T03:34:41.725Z,0
2022-09-05T03:35:08.288Z,0
2022-09-05T03:35:21.856Z,0
2022-09-05T03:35:41.925Z,0
2022-09-05T03:36:02.008Z,0
2022-09-05T03:36:22.063Z,0
2022-09-05T03:36:42.149Z,0
2022-09-05T03:37:02.194Z,0
2022-09-05T03:37:22.251Z,0
2022-09-05T03:37:42.296Z,0
2022-09-05T03:38:02.368Z,0
2022-09-05T03:38:22.428Z,0
2022-09-05T03:38:43.338Z,0
2022-09-05T03:39:02.543Z,0
2022-09-05T03:39:22.705Z,0
2022-09-05T03:39:42.752Z,0
2022-09-05T03:40:16.265Z,0
2022-09-05T03:40:22.865Z,0
2022-09-05T03:40:42.875Z,0
2022-09-05T03:41:02.920Z,0
2022-09-05T03:41:25.260Z,0
2022-09-05T03:41:43.450Z,0
2022-09-05T03:42:03.118Z,0
2022-09-05T03:42:24.016Z,0
2022-09-05T03:42:43.293Z,0
2022-09-05T03:43:03.322Z,0
2022-09-05T03:43:23.406Z,0
2022-09-05T03:43:43.442Z,0
2022-09-05T03:44:03.493Z,0
2022-09-05T03:44:23.576Z,0
2022-09-05T03:44:43.636Z,0
2022-09-05T03:45:03.685Z,0
2022-09-05T03:45:36.404Z,0
2022-09-05T03:45:43.879Z,0
2022-09-05T03:46:04.006Z,0
2022-09-05T03:46:23.983Z,0
2022-09-05T03:46:44.000Z,0
2022-09-05T03:47:04.064Z,0
2022-09-05T03:47:24.166Z,0
2022-09-05T03:47:44.199Z,0
2022-09-05T03:48:18.677Z,0
2022-09-05T03:48:28.651Z,0
2022-09-05T03:48:44.399Z,0
2022-09-05T03:49:25.899Z,0
2022-09-05T03:50:16.721Z,0
2022-09-05T03:52:35.409Z,0
2022-09-05T03:52:59.715Z,0
2022-09-05T03:54:22.915Z,0
2022-09-05T03:57:05.593Z,0
2022-09-05T03:57:06.021Z,0
2022-09-05T03:57:08.544Z,0
2022-09-05T03:57:11.362Z,0
2022-09-05T03:57:12.568Z,0
2022-09-05T03:57:13.650Z,0
2022-09-05T03:57:14.030Z,0
2022-09-05T03:57:14.287Z,0
2022-09-05T03:57:15.201Z,0
2022-09-05T03:57:16.115Z,0
2022-09-05T03:57:17.061Z,0
2022-09-05T03:57:17.661Z,0
2022-09-05T03:57:17.661Z,0
2022-09-05T03:57:17.965Z,0
2022-09-05T03:57:18.607Z,0
2022-09-05T03:57:24.170Z,0
2022-09-05T03:57:24.262Z,0
2022-09-05T03:57:25.091Z,0
2022-09-05T03:57:25.424Z,0
2022-09-05T03:57:32.466Z,0
2022-09-05T03:57:42.964Z,0
2022-09-05T03:57:46.093Z,0
2022-09-05T03:58:16.279Z,0
2022-09-05T03:58:41.907Z,0
2022-09-05T03:59:01.901Z,0
2022-09-05T03:59:06.353Z,0
2022-09-05T03:59:26.407Z,0
2022-09-05T03:59:46.468Z,0
2022-09-05T04:00:06.535Z,0
2022-09-05T04:00:26.604Z,0
2022-09-05T04:00:46.665Z,0
2022-09-05T04:01:30.681Z,0
2022-09-05T04:02:15.234Z,0
2022-09-05T04:04:28.859Z,0
2022-09-05T04:07:00.401Z,0
2022-09-05T04:07:14.945Z,0
2022-09-05T04:08:06.182Z,0
2022-09-05T04:08:07.246Z,0
2022-09-05T04:08:07.435Z,0
2022-09-05T04:08:08.727Z,0
2022-09-05T04:08:10.804Z,0
2022-09-05T04:08:11.592Z,0
2022-09-05T04:08:16.468Z,0
2022-09-05T04:08:17.690Z,0
2022-09-05T04:08:18.541Z,0
2022-09-05T04:08:19.683Z,0
2022-09-05T04:08:20.391Z,0
2022-09-05T04:08:21.887Z,0
2022-09-05T04:08:25.940Z,0
2022-09-05T04:08:27.806Z,0
2022-09-05T04:08:27.806Z,0
2022-09-05T04:08:28.657Z,0
2022-09-05T04:08:30.795Z,0
2022-09-05T04:08:36.979Z,0
2022-09-05T04:08:48.835Z,0
2022-09-05T04:09:08.431Z,0
2022-09-05T04:09:49.664Z,0
2022-09-05T04:09:51.483Z,0
2022-09-05T04:10:08.589Z,0
2022-09-05T04:10:28.683Z,0
2022-09-05T04:10:48.924Z,0
2022-09-05T04:11:08.712Z,0
2022-09-05T04:11:28.709Z,0
2022-09-05T04:11:48.760Z,0
2022-09-05T04:12:08.847Z,0
2022-09-05T04:12:28.889Z,0
2022-09-05T04:12:48.958Z,0
2022-09-05T04:13:09.007Z,0
2022-09-05T04:13:29.095Z,0
2022-09-05T04:13:49.101Z,0
2022-09-05T04:14:09.146Z,0
2022-09-05T04:14:29.177Z,0
2022-09-05T04:14:49.194Z,0
2022-09-05T04:15:09.241Z,0
2022-09-05T04:15:29.286Z,0
2022-09-05T04:15:49.272Z,0
2022-09-05T04:16:09.343Z,0
2022-09-05T04:16:29.343Z,0
2022-09-05T04:16:49.412Z,0
2022-09-05T04:17:09.368Z,0
2022-09-05T04:17:29.391Z,0
2022-09-05T04:17:49.396Z,0
2022-09-05T04:18:09.455Z,0
2022-09-05T04:18:33.639Z,0
2022-09-05T04:18:49.486Z,0
2022-09-05T04:19:09.486Z,0
2022-09-05T04:19:29.514Z,0
2022-09-05T04:19:49.981Z,0
2022-09-05T04:20:09.552Z,0
2022-09-05T04:20:29.571Z,0
2022-09-05T04:20:49.619Z,0
2022-09-05T04:21:09.645Z,0
2022-09-05T04:21:29.680Z,0
2022-09-05T04:21:49.689Z,0
2022-09-05T04:22:09.706Z,0
2022-09-05T04:22:29.744Z,0
2022-09-05T04:22:49.787Z,0
2022-09-05T04:23:09.842Z,0
2022-09-05T04:23:29.844Z,0
2022-09-05T04:23:49.846Z,0
2022-09-05T04:24:09.881Z,0
2022-09-05T04:24:29.900Z,0
2022-09-05T04:24:49.936Z,0
2022-09-05T04:25:09.956Z,0
2022-09-05T04:25:29.962Z,0
2022-09-05T04:25:49.986Z,0
2022-09-05T04:26:11.986Z,0
2022-09-05T04:26:30.049Z,0
2022-09-05T04:26:50.060Z,0
2022-09-05T04:27:10.085Z,0
2022-09-05T04:27:30.108Z,0
2022-09-05T04:27:50.118Z,0
2022-09-05T04:28:10.117Z,0
2022-09-05T04:28:30.168Z,0
2022-09-05T04:28:53.379Z,0
2022-09-05T04:29:10.256Z,0
2022-09-05T04:29:30.253Z,0
2022-09-05T04:29:50.278Z,0
2022-09-05T04:30:27.627Z,0
2022-09-05T04:30:39.420Z,0
2022-09-05T04:30:50.407Z,0
2022-09-05T04:31:10.472Z,0
2022-09-05T04:31:30.622Z,0
2022-09-05T04:32:15.428Z,0
2022-09-05T04:32:19.183Z,0
2022-09-05T04:32:30.766Z,0
2022-09-05T04:32:54.182Z,0
2022-09-05T04:33:10.847Z,0
2022-09-05T04:33:36.144Z,0
2022-09-05T04:33:50.965Z,0
2022-09-05T04:34:11.043Z,0
2022-09-05T04:34:31.106Z,0
2022-09-05T04:34:51.274Z,0
2022-09-05T04:35:11.220Z,0
2022-09-05T04:35:31.301Z,0
2022-09-05T04:35:51.349Z,0
2022-09-05T04:36:17.676Z,0
2022-09-05T04:36:31.476Z,0
2022-09-05T04:36:51.535Z,0
2022-09-05T04:37:11.636Z,0
2022-09-05T04:37:48.036Z,0
2022-09-05T04:37:51.737Z,0
2022-09-05T04:38:11.797Z,0
2022-09-05T04:38:31.854Z,0
2022-09-05T04:38:51.929Z,0
2022-09-05T04:39:11.988Z,0
2022-09-05T04:39:32.075Z,0
2022-09-05T04:39:52.155Z,0
2022-09-05T04:40:12.197Z,0
2022-09-05T04:40:33.113Z,0
2022-09-05T04:40:52.314Z,0
2022-09-05T04:41:12.395Z,0
2022-09-05T04:41:37.733Z,0
2022-09-05T04:41:52.514Z,0
2022-09-05T04:42:12.553Z,0
2022-09-05T04:42:32.615Z,0
2022-09-05T04:42:52.707Z,0
2022-09-05T04:43:12.750Z,0
2022-09-05T04:43:32.812Z,0
2022-09-05T04:43:52.867Z,0
2022-09-05T04:44:12.946Z,0
2022-09-05T04:44:33.014Z,0
2022-09-05T04:44:55.962Z,0
2022-09-05T04:45:13.085Z,0
2022-09-05T04:45:33.127Z,0
2022-09-05T04:45:53.227Z,0
2022-09-05T04:46:18.279Z,0
2022-09-05T04:46:33.174Z,0
2022-09-05T04:46:53.197Z,0
2022-09-05T04:47:15.794Z,0
2022-09-05T04:47:33.233Z,0
2022-09-05T04:47:53.248Z,0
2022-09-05T04:48:13.266Z,0
2022-09-05T04:48:33.281Z,0
2022-09-05T04:48:53.327Z,0
2022-09-05T04:49:13.310Z,0
2022-09-05T04:49:33.325Z,0
2022-09-05T04:49:53.347Z,0
2022-09-05T04:50:13.356Z,0
2022-09-05T04:50:38.130Z,0
2022-09-05T04:50:53.421Z,0
2022-09-05T04:51:13.422Z,0
2022-09-05T04:51:33.447Z,0
2022-09-05T04:52:00.847Z,0
2022-09-05T04:52:16.791Z,0
2022-09-05T04:52:33.540Z,0
2022-09-05T04:52:53.589Z,0
2022-09-05T04:53:13.892Z,0